• Join FlightAware (Why Join?)
  • Login
  • US Flag 
04:49AM EDT


 

Airport Tracker/Info


-or-


 

Live Flight TrackerFlight Track Log ✈ SWA2260 ✈ 10-May-2013 ✈ KOKC - KHOU

Flight Track Log - Related Links

Times and Time Zones

All times are in EDT time to prevent confusion due to time zone crossing. See the SWA2260 flight status page for this flight to view local times or setup timezone preferences in your user account.

Time Position Orientation Groundspeed Altitude Reporting Facility
EDT Latitude Longitude Course Direction KTS MPH feet Rate Location/Type
06:55PM 35.4206 -97.6428 315° West 153 176 3,000  Level Fort Worth Center
06:55PM 35.4311 -97.6556 315° West 195 224 3,500 2,760 Climbing Fort Worth Center
06:56PM 35.4392 -97.7067 281° West 234 269 5,800 2,880 Climbing Fort Worth Center
06:56PM 35.4267 -97.7192 219° Southwest 259 298 6,400 2,640 Climbing Fort Worth Center
06:57PM 35.3703 -97.7114 174° South 290 334 8,500 2,460 Climbing Fort Worth Center
06:58PM 35.2911 -97.6806 162° South 322 371 10,800 2,640 Climbing Fort Worth Center
06:59PM 35.1767 -97.6397 164° South 361 415 14,500 3,240 Climbing Fort Worth Center
07:00PM 35.0767 -97.6039 164° South 361 415 18,000 3,240 Climbing Fort Worth Center
07:01PM 34.9744 -97.5706 165° South 371 427 21,000 2,820 Climbing Fort Worth Center
07:02PM 34.8658 -97.5350 165° South 385 443 23,700 2,580 Climbing Fort Worth Center
07:03PM 34.7553 -97.5019 166° South 400 460 26,200 2,280 Climbing Fort Worth Center
07:04PM 34.6364 -97.4767 170° South 420 483 28,300 2,160 Climbing Fort Worth Center
07:05PM 34.5197 -97.4514 170° South 432 497 30,600 2,460 Climbing Fort Worth Center
07:06PM 34.4028 -97.4261 170° South 432 497 33,300 2,340 Climbing Fort Worth Center
07:07PM 34.2922 -97.4008 169° South 426 490 35,300 1,500 Climbing Fort Worth Center
07:08PM 34.1753 -97.3783 171° South 426 490 36,400 1,080 Climbing Fort Worth Center
07:09PM 34.0586 -97.3533 170° South 426 490 37,500 960 Climbing Fort Worth Center
07:10PM 33.9417 -97.3258 169° South 426 490 38,400 720 Climbing Fort Worth Center
07:11PM 33.8206 -97.3036 171° South 431 496 39,000 300 Climbing Fort Worth Center
07:12PM 33.6975 -97.2761 169° South 441 507 39,000  Level Fort Worth Center
07:13PM 33.5722 -97.2514 171° South 447 514 39,000  Level Fort Worth Center
07:14PM 33.4575 -97.2217 168° South 442 509 39,000  Level Fort Worth Center
07:15PM 33.3383 -97.1972 170° South 437 503 39,000  Level Fort Worth Center
07:16PM 33.2194 -97.1700 169° South 432 497 39,000  Level Fort Worth Center
07:17PM 33.1044 -97.1481 171° South 426 490 39,000  Level Fort Worth Center
07:18PM 32.9897 -97.1236 170° South 426 490 39,000  Level Fort Worth Center
07:19PM 32.8872 -97.1017 170° South 426 490 39,000  Level Fort Worth Center
07:20PM 32.7597 -97.0750 170° South 426 490 39,000  Level Fort Worth Center
07:21PM 32.6556 -97.0556 171° South 426 490 39,000  Level Fort Worth Center
07:22PM 32.5300 -97.0267 169° South 426 490 39,000  Level Fort Worth Center
07:23PM 32.4278 -97.0097 172° South 426 490 39,000  Level Fort Worth Center
07:24PM 32.3025 -96.9808 169° South 421 484 39,000  Level Fort Worth Center
07:25PM 32.2000 -96.9642 172° South 421 484 39,000  Level Fort Worth Center
07:26PM 32.0850 -96.9400 170° South 421 484 39,000  Level Fort Worth Center
07:27PM 31.9661 -96.9139 169° South 429 494 39,000  Level Fort Worth Center
07:28PM 31.8236 -96.8822 169° South 433 498 39,000  Level Houston Center
07:29PM 31.7172 -96.8614 171° South 429 494 39,000  Level Fort Worth Center
07:31PM 31.5844 -96.8344 170° South 431 496 39,000 -240 Level Houston Center
07:32PM 31.4653 -96.8089 170° South 430 495 38,600 -780 Descending Houston Center
07:33PM 31.3500 -96.7872 171° South 419 482 37,500 -1,320 Descending Houston Center
07:34PM 31.2347 -96.7647 171° South 414 476 35,900 -2,340 Descending Houston Center
07:35PM 31.1161 -96.7372 169° South 424 488 32,800 -2,940 Descending Houston Center
07:36PM 31.0006 -96.6700 153° Southeast 451 519 29,900 -2,760 Descending Houston Center
07:37PM 30.8878 -96.6047 154° Southeast 447 514 27,200 -2,760 Descending Houston Center
07:38PM 30.7764 -96.5400 153° Southeast 443 510 24,300 -2,640 Descending Houston Center
07:39PM 30.6711 -96.4775 153° Southeast 428 493 21,900 -2,340 Descending Houston Center
07:40PM 30.5717 -96.4189 153° Southeast 402 463 19,600 -2,520 Descending Houston Center
07:40PM 30.5103 -96.3847 154° Southeast 386 444 18,200 -2,520 Descending Houston Center
07:41PM 30.4883 -96.3725 154° Southeast 380 437 17,700 -1,980 Descending Houston Center
07:41PM 30.4606 -96.3550 151° Southeast 378 435 17,100 -2,340 Descending Houston Center
07:41PM 30.4000 -96.3194 153° Southeast 366 421 15,600 -2,220 Descending Houston Center
07:42PM 30.3692 -96.3025 155° Southeast 365 420 14,900 -2,220 Descending Houston Center
07:42PM 30.3094 -96.2667 153° Southeast 358 412 13,400 -2,160 Descending Houston Center
07:43PM 30.2794 -96.2492 153° Southeast 359 413 12,700 -2,100 Descending Houston Center
07:43PM 30.2211 -96.2161 154° Southeast 348 400 11,300 -1,680 Descending Houston Center
07:44PM 30.1931 -96.1992 152° Southeast 345 397 11,000 -240 Descending Houston Center
07:44PM 30.1375 -96.1700 156° South 330 380 11,100  Climbing Houston Center
07:45PM 30.1061 -96.1536 156° South 332 382 11,000 -120 Descending Houston Center
07:46PM 30.0453 -96.1225 156° South 335 386 11,000 -240 Level Houston Center
07:46PM 30.0203 -96.1083 154° Southeast 336 387 10,800 -900 Descending Houston Center
07:47PM 29.9572 -96.0744 155° Southeast 335 386 10,100 -780 Descending Houston Center
07:47PM 29.9364 -96.0622 153° Southeast 334 384 10,000 -120 Descending Houston Center
07:48PM 29.8775 -96.0233 150° Southeast 316 364 10,000 -300 Level Houston Center
07:48PM 29.8622 -96.0058 135° Southeast 329 379 9,700 -1,200 Descending Houston Center
07:49PM 29.8208 -95.9528 132° Southeast 300 345 8,800 -1,380 Descending Houston Center
07:49PM 29.8011 -95.9300 135° Southeast 301 346 8,300 -1,560 Descending Houston Center
07:50PM 29.7794 -95.8614 110° East 294 338 7,100 -1,500 Descending Houston Center
07:50PM 29.7775 -95.8431 97° East 290 334 6,800 -1,380 Descending Houston Center
07:51PM 29.7692 -95.7686 97° East 284 327 5,700 -1,380 Descending Houston Center
07:51PM 29.7664 -95.7531 102° East 285 328 5,400 -1,260 Descending Houston Center
07:52PM 29.7558 -95.6664 98° East 277 319 4,100 -1,440 Descending Houston Center
07:53PM 29.7447 -95.5886 99° East 265 305 2,800 -1,020 Descending Houston Center
07:54PM 29.7353 -95.5081 98° East 239 275 2,200 -360 Descending Houston Center
07:55PM 29.7242 -95.4322 100° East 210 242 2,100 -120 Descending Houston Center
07:56PM 29.7161 -95.3683 98° East 172 198 2,000 -420 Descending Houston Center
07:57PM 29.6847 -95.3261 131° Southeast 179 206 1,200 -780 Descending Houston Center
07:58PM 29.6617 -95.3003 136° Southeast 131 151 500 -900 Descending Houston Center